< < Back
Terminal Aerodrome Forecast


Current Version              Previous Versions:   1  2  3  4  5  6  7  8  9  

Terminal Aerodrome Forecast

380
FTUS42 KILM 301100 CCA
TAFILM
TAF COR
KILM 301153Z 3012/3112 04004KT P6SM SCT018
      TEMPO 3012/3016 BKN018
     FM301600 15008KT P6SM SCT025
     FM310900 VRB03KT 6SM BR BKN012=

Latest METAR

555
SAUS70 KWBC 302200 RRG
MTRILM
METAR KILM 302153Z 14009KT 10SM FEW031 29/22 A3014 RMK AO2 SLP206
T02890217


USA.gov is the U.S. government's official web portal to all federal, state and local government web resources and services.